createdAt,value
2022-10-10T00:02:35.349Z,4.20
2022-10-10T00:05:23.344Z,4.20
2022-10-10T00:08:12.607Z,4.20
2022-10-10T00:11:00.524Z,4.20
2022-10-10T00:13:48.802Z,4.20
2022-10-10T00:16:36.529Z,4.20
2022-10-10T00:19:24.505Z,4.20
2022-10-10T00:22:12.291Z,4.20
2022-10-10T00:25:01.338Z,4.20
2022-10-10T00:27:48.900Z,4.20
2022-10-10T00:30:37.029Z,4.20
2022-10-10T00:33:24.740Z,4.30
2022-10-10T00:36:13.181Z,4.30
2022-10-10T00:39:01.683Z,4.30
2022-10-10T00:41:50.862Z,4.30
2022-10-10T00:44:38.754Z,4.30
2022-10-10T00:47:26.760Z,4.40
2022-10-10T00:50:14.733Z,4.30
2022-10-10T00:53:03.038Z,4.30
2022-10-10T00:55:51.384Z,4.20
2022-10-10T00:58:44.395Z,4.20
2022-10-10T01:01:32.639Z,4.20
2022-10-10T01:04:37.944Z,4.20
2022-10-10T01:07:29.846Z,4.20
2022-10-10T01:10:20.613Z,4.20
2022-10-10T01:13:19.899Z,4.10
2022-10-10T01:16:19.136Z,4.10
2022-10-10T01:19:20.642Z,4.10
2022-10-10T01:22:22.749Z,4.10
2022-10-10T01:25:22.757Z,4.00
2022-10-10T01:28:23.776Z,4.00
2022-10-10T01:31:15.044Z,4.00
2022-10-10T01:34:08.624Z,4.00
2022-10-10T01:37:01.962Z,4.00
2022-10-10T01:39:57.597Z,4.00
2022-10-10T01:42:51.111Z,4.00
2022-10-10T01:45:45.225Z,4.00
2022-10-10T01:48:33.663Z,4.00
2022-10-10T01:51:36.095Z,4.00
2022-10-10T01:54:41.415Z,4.10
2022-10-10T01:57:37.368Z,4.00
2022-10-10T02:00:25.206Z,4.00
2022-10-10T02:03:18.294Z,4.00
2022-10-10T02:06:13.450Z,4.10
2022-10-10T02:09:05.424Z,4.20
2022-10-10T02:11:54.605Z,4.30
2022-10-10T02:14:45.971Z,4.30
2022-10-10T02:17:37.245Z,4.30
2022-10-10T02:20:28.416Z,4.30
2022-10-10T02:23:19.069Z,4.30
2022-10-10T02:26:07.366Z,4.20
2022-10-10T02:28:58.737Z,4.20
2022-10-10T02:31:55.121Z,4.10
2022-10-10T02:34:45.967Z,4.10
2022-10-10T02:37:37.186Z,4.10
2022-10-10T02:40:28.533Z,4.00
2022-10-10T02:43:17.961Z,4.00
2022-10-10T02:46:09.595Z,3.90
2022-10-10T02:48:57.304Z,3.90
2022-10-10T02:51:45.594Z,3.90
2022-10-10T02:54:34.764Z,3.90
2022-10-10T02:57:22.709Z,3.80
2022-10-10T03:00:11.213Z,3.90
2022-10-10T03:02:58.844Z,3.80
2022-10-10T03:05:47.107Z,3.90
2022-10-10T03:08:35.044Z,3.80
2022-10-10T03:11:24.103Z,3.80
2022-10-10T03:14:12.042Z,3.90
2022-10-10T03:16:59.669Z,3.90
2022-10-10T03:19:47.507Z,3.90
2022-10-10T03:22:35.178Z,3.90
2022-10-10T03:25:22.758Z,3.90
2022-10-10T03:28:12.209Z,3.80
2022-10-10T03:30:59.991Z,3.80
2022-10-10T03:33:47.582Z,3.80
2022-10-10T03:36:35.126Z,3.90
2022-10-10T03:39:22.945Z,3.90
2022-10-10T03:42:10.883Z,3.90
2022-10-10T03:45:00.156Z,3.90
2022-10-10T03:47:47.951Z,4.00
2022-10-10T03:50:36.217Z,4.00
2022-10-10T03:53:24.372Z,4.10
2022-10-10T03:56:12.121Z,4.20
2022-10-10T03:59:00.914Z,4.20
2022-10-10T04:01:50.100Z,4.20
2022-10-10T04:04:37.823Z,4.30
2022-10-10T04:07:25.659Z,4.30
2022-10-10T04:10:13.448Z,4.40
2022-10-10T04:13:01.366Z,4.50
2022-10-10T04:15:52.205Z,4.50
2022-10-10T04:18:41.652Z,4.50
2022-10-10T04:21:32.161Z,4.50
2022-10-10T04:24:20.200Z,4.50
2022-10-10T04:27:08.023Z,4.40
2022-10-10T04:29:56.317Z,4.40
2022-10-10T04:32:44.039Z,4.40
2022-10-10T04:35:33.137Z,4.40
2022-10-10T04:38:21.439Z,4.40
2022-10-10T04:41:08.965Z,4.50
2022-10-10T04:43:56.896Z,4.40
2022-10-10T04:46:44.607Z,4.40
2022-10-10T04:49:32.453Z,4.30
2022-10-10T04:52:21.537Z,4.30
2022-10-10T04:55:09.882Z,4.20
2022-10-10T04:57:57.498Z,4.10
2022-10-10T05:00:45.698Z,4.00
2022-10-10T05:03:36.227Z,4.00
2022-10-10T05:06:24.061Z,3.90
2022-10-10T05:09:13.552Z,3.80
2022-10-10T05:12:01.515Z,3.80
2022-10-10T05:14:49.365Z,3.80
2022-10-10T05:17:37.313Z,3.70
2022-10-10T05:20:25.029Z,3.70
2022-10-10T05:23:13.071Z,3.70
2022-10-10T05:26:02.553Z,3.70
2022-10-10T05:28:50.473Z,3.60
2022-10-10T05:31:38.197Z,3.60
2022-10-10T05:34:26.268Z,3.50
2022-10-10T05:37:13.780Z,3.50
2022-10-10T05:40:01.531Z,3.60
2022-10-10T05:42:51.341Z,3.60
2022-10-10T05:45:40.286Z,3.60
2022-10-10T05:48:28.077Z,3.70
2022-10-10T05:51:15.750Z,3.70
2022-10-10T05:54:05.217Z,3.70
2022-10-10T05:56:52.763Z,3.70
2022-10-10T05:59:42.229Z,3.80
2022-10-10T06:02:29.916Z,4.00
2022-10-10T06:05:17.920Z,4.10
2022-10-10T06:08:11.629Z,4.20
2022-10-10T06:11:03.927Z,4.30
2022-10-10T06:13:54.350Z,4.40
2022-10-10T06:16:46.054Z,4.60
2022-10-10T06:19:34.093Z,4.80
2022-10-10T06:22:22.050Z,4.90
2022-10-10T06:25:29.026Z,5.00
2022-10-10T06:28:18.304Z,5.10
2022-10-10T06:31:08.379Z,5.20
2022-10-10T06:33:57.308Z,5.40
2022-10-10T06:36:44.811Z,5.50
2022-10-10T06:39:33.486Z,5.60
2022-10-10T06:42:21.107Z,5.80
2022-10-10T06:45:17.951Z,5.90
2022-10-10T06:48:06.576Z,6.10
2022-10-10T06:51:00.057Z,6.20
2022-10-10T06:53:48.541Z,6.40
2022-10-10T06:56:36.114Z,6.50
2022-10-10T06:59:25.019Z,6.60
2022-10-10T07:02:15.133Z,6.80
2022-10-10T07:05:03.138Z,6.90
2022-10-10T07:07:53.564Z,7.10
2022-10-10T07:10:41.669Z,7.20
2022-10-10T07:13:29.761Z,7.30
2022-10-10T07:16:17.680Z,7.40
2022-10-10T07:19:06.266Z,7.60
2022-10-10T07:21:54.254Z,7.70
2022-10-10T07:24:43.594Z,7.80
2022-10-10T07:27:31.709Z,7.90
2022-10-10T07:30:20.075Z,8.00
2022-10-10T07:33:08.203Z,8.10
2022-10-10T07:35:56.131Z,8.30
2022-10-10T07:38:43.742Z,8.40
2022-10-10T07:41:32.907Z,8.60
2022-10-10T07:44:21.749Z,8.70
2022-10-10T07:47:09.528Z,8.90
2022-10-10T07:49:57.181Z,9.00
2022-10-10T07:52:44.843Z,9.10
2022-10-10T07:55:32.490Z,9.30
2022-10-10T07:58:21.393Z,9.40
2022-10-10T08:01:11.843Z,9.60
2022-10-10T08:03:59.752Z,9.70
2022-10-10T08:06:48.438Z,9.90
2022-10-10T08:09:36.381Z,10.20
2022-10-10T08:12:24.178Z,10.40
2022-10-10T08:15:13.609Z,10.50
2022-10-10T08:18:01.584Z,10.60
2022-10-10T08:20:49.520Z,10.80
2022-10-10T08:23:38.012Z,10.90
2022-10-10T08:26:26.060Z,11.10
2022-10-10T08:29:14.252Z,11.20
2022-10-10T08:32:03.606Z,11.50
2022-10-10T08:34:51.425Z,11.60
2022-10-10T08:37:39.065Z,11.70
2022-10-10T08:40:29.232Z,11.80
2022-10-10T08:43:23.431Z,12.10
2022-10-10T08:46:17.719Z,12.20
2022-10-10T08:49:18.903Z,12.40
2022-10-10T08:52:12.102Z,12.50
2022-10-10T08:55:02.017Z,12.60
2022-10-10T08:57:52.918Z,12.80
2022-10-10T09:00:46.405Z,13.10
2022-10-10T09:03:41.400Z,13.30
2022-10-10T09:06:42.041Z,13.40
2022-10-10T09:09:39.013Z,13.60
2022-10-10T09:12:35.285Z,13.80
2022-10-10T09:15:27.509Z,14.10
2022-10-10T09:18:23.817Z,14.10
2022-10-10T09:21:17.487Z,14.30
2022-10-10T09:24:12.005Z,14.50
2022-10-10T09:27:04.076Z,14.70
2022-10-10T09:29:55.925Z,14.90
2022-10-10T09:32:51.263Z,15.20
2022-10-10T09:35:42.236Z,15.50
2022-10-10T09:38:35.354Z,15.70
2022-10-10T09:41:29.814Z,15.90
2022-10-10T09:44:21.276Z,16.00
2022-10-10T09:47:11.467Z,16.30
2022-10-10T09:50:00.672Z,16.40
2022-10-10T09:52:49.722Z,16.70
2022-10-10T09:55:39.998Z,16.90
2022-10-10T09:58:35.066Z,17.20
2022-10-10T10:01:25.079Z,17.40
2022-10-10T10:04:27.020Z,17.60
2022-10-10T10:07:26.667Z,17.70
2022-10-10T10:10:21.869Z,17.90
2022-10-10T10:13:15.590Z,18.20
2022-10-10T10:16:11.353Z,18.50
2022-10-10T10:18:59.432Z,18.70
2022-10-10T10:21:52.699Z,18.80
2022-10-10T10:24:40.609Z,18.90
2022-10-10T10:27:30.261Z,19.00
2022-10-10T10:30:27.044Z,18.90
2022-10-10T10:33:42.526Z,19.00
2022-10-10T10:36:42.342Z,19.20
2022-10-10T10:39:44.368Z,19.10
2022-10-10T10:42:45.765Z,19.10
2022-10-10T10:45:44.842Z,19.00
2022-10-10T10:48:42.385Z,19.00
2022-10-10T10:51:51.278Z,19.00
2022-10-10T10:54:56.447Z,19.10
2022-10-10T10:58:37.252Z,19.30
2022-10-10T11:01:54.816Z,19.30
2022-10-10T11:05:22.509Z,19.30
2022-10-10T11:08:04.371Z,19.40
2022-10-10T11:11:00.699Z,19.30
2022-10-10T11:13:56.864Z,19.30
2022-10-10T11:16:49.612Z,19.10
2022-10-10T11:19:44.224Z,19.00
2022-10-10T11:22:36.729Z,19.00
2022-10-10T11:25:30.889Z,19.10
2022-10-10T11:28:23.693Z,19.10
2022-10-10T11:31:14.853Z,19.10
2022-10-10T11:34:08.253Z,19.00
2022-10-10T11:37:04.680Z,18.90
2022-10-10T11:39:56.839Z,19.00
2022-10-10T11:42:50.525Z,19.10
2022-10-10T11:45:45.653Z,19.20
2022-10-10T11:48:40.535Z,19.30
2022-10-10T11:51:42.328Z,19.50
2022-10-10T11:54:38.169Z,19.60
2022-10-10T11:57:34.024Z,19.60
2022-10-10T12:00:22.276Z,19.50
2022-10-10T12:03:10.707Z,19.50
2022-10-10T12:06:04.284Z,19.70
2022-10-10T12:08:58.204Z,19.80
2022-10-10T12:11:54.367Z,20.10
2022-10-10T12:14:48.274Z,20.40
2022-10-10T12:17:39.817Z,20.50
2022-10-10T12:20:35.793Z,20.50
2022-10-10T12:23:28.932Z,20.70
2022-10-10T12:26:21.673Z,20.80
2022-10-10T12:29:12.414Z,20.90
2022-10-10T12:32:24.955Z,21.00
2022-10-10T12:35:45.608Z,21.00
2022-10-10T12:38:33.502Z,20.90
2022-10-10T12:41:21.790Z,20.80
2022-10-10T12:44:23.701Z,20.70
2022-10-10T12:48:04.581Z,20.40
2022-10-10T12:50:58.577Z,20.40
2022-10-10T12:53:50.772Z,20.40
2022-10-10T12:56:41.969Z,20.40
2022-10-10T12:59:32.126Z,20.50
2022-10-10T13:02:23.590Z,20.50
2022-10-10T13:05:15.373Z,20.60
2022-10-10T13:08:06.120Z,20.60
2022-10-10T13:11:05.973Z,20.70
2022-10-10T13:13:55.522Z,20.70
2022-10-10T13:16:46.143Z,20.80
2022-10-10T13:19:43.623Z,20.80
2022-10-10T13:22:33.407Z,20.80
2022-10-10T13:25:21.588Z,21.00
2022-10-10T13:28:18.396Z,21.30
2022-10-10T13:31:11.663Z,21.40
2022-10-10T13:34:04.832Z,21.40
2022-10-10T13:36:56.286Z,21.20
2022-10-10T13:39:44.544Z,20.90
2022-10-10T13:42:35.720Z,20.60
2022-10-10T13:45:48.510Z,20.30
2022-10-10T13:48:41.134Z,20.00
2022-10-10T13:51:45.703Z,19.80
2022-10-10T13:54:45.066Z,19.60
2022-10-10T13:57:33.331Z,19.50
2022-10-10T14:00:23.420Z,19.40
2022-10-10T14:03:17.357Z,19.30
2022-10-10T14:06:05.202Z,19.20
2022-10-10T14:08:56.598Z,19.10
2022-10-10T14:11:44.918Z,19.10
2022-10-10T14:14:41.819Z,19.00
2022-10-10T14:17:30.120Z,19.00
2022-10-10T14:20:18.185Z,19.00
2022-10-10T14:23:06.253Z,18.90
2022-10-10T14:25:55.505Z,18.90
2022-10-10T14:28:44.062Z,18.80
2022-10-10T14:31:31.779Z,18.80
2022-10-10T14:34:19.287Z,18.70
2022-10-10T14:37:07.334Z,18.80
2022-10-10T14:39:54.727Z,19.00
2022-10-10T14:42:43.641Z,19.60
2022-10-10T14:45:31.588Z,20.30
2022-10-10T14:48:19.937Z,21.00
2022-10-10T14:51:33.682Z,21.60
2022-10-10T14:54:19.368Z,21.90
2022-10-10T14:57:10.197Z,22.00
2022-10-10T15:00:00.416Z,21.60
2022-10-10T15:02:48.852Z,21.10
2022-10-10T15:05:37.549Z,20.70
2022-10-10T15:08:25.353Z,20.30
2022-10-10T15:11:17.691Z,20.00
2022-10-10T15:14:05.330Z,19.70
2022-10-10T15:16:54.543Z,19.50
2022-10-10T15:19:41.684Z,19.30
2022-10-10T15:22:30.495Z,19.10
2022-10-10T15:25:18.474Z,18.90
2022-10-10T15:28:07.208Z,18.70
2022-10-10T15:30:55.581Z,18.50
2022-10-10T15:33:45.015Z,18.40
2022-10-10T15:36:33.061Z,18.20
2022-10-10T15:39:20.709Z,18.10
2022-10-10T15:42:14.990Z,17.90
2022-10-10T15:45:06.001Z,17.80
2022-10-10T15:47:54.250Z,17.60
2022-10-10T15:50:44.566Z,17.50
2022-10-10T15:53:32.599Z,17.30
2022-10-10T15:56:20.552Z,17.10
2022-10-10T15:59:09.801Z,17.00
2022-10-10T16:01:57.618Z,16.70
2022-10-10T16:04:46.294Z,16.60
2022-10-10T16:07:42.121Z,16.50
2022-10-10T16:10:38.670Z,16.30
2022-10-10T16:13:26.475Z,16.10
2022-10-10T16:16:14.036Z,16.00
2022-10-10T16:19:01.888Z,15.80
2022-10-10T16:21:49.751Z,15.70
2022-10-10T16:24:39.049Z,15.50
2022-10-10T16:27:27.930Z,15.30
2022-10-10T16:30:16.568Z,15.20
2022-10-10T16:33:04.724Z,15.00
2022-10-10T16:35:52.356Z,14.80
2022-10-10T16:38:40.538Z,14.60
2022-10-10T16:41:48.737Z,14.40
2022-10-10T16:44:37.533Z,14.30
2022-10-10T16:47:25.403Z,14.10
2022-10-10T16:50:13.713Z,14.00
2022-10-10T16:53:01.563Z,13.80
2022-10-10T16:55:49.348Z,13.70
2022-10-10T16:58:39.634Z,13.60
2022-10-10T17:01:28.302Z,13.40
2022-10-10T17:04:16.214Z,13.20
2022-10-10T17:07:04.002Z,13.10
2022-10-10T17:09:51.425Z,12.90
2022-10-10T17:12:39.214Z,12.80
2022-10-10T17:15:28.772Z,12.70
2022-10-10T17:18:17.641Z,12.60
2022-10-10T17:21:09.401Z,12.50
2022-10-10T17:23:57.373Z,12.40
2022-10-10T17:26:45.161Z,12.30
2022-10-10T17:29:32.664Z,12.30
2022-10-10T17:32:22.276Z,12.20
2022-10-10T17:35:10.342Z,12.10
2022-10-10T17:37:58.295Z,12.10
2022-10-10T17:40:46.414Z,12.10
2022-10-10T17:43:34.897Z,12.10
2022-10-10T17:46:40.893Z,12.10
2022-10-10T17:49:30.409Z,12.20
2022-10-10T17:52:21.202Z,12.40
2022-10-10T17:55:09.909Z,12.40
2022-10-10T17:57:57.787Z,12.50
2022-10-10T18:00:45.528Z,12.50
2022-10-10T18:03:33.345Z,12.50
2022-10-10T18:06:24.332Z,12.50
2022-10-10T18:09:11.745Z,12.40
2022-10-10T18:11:59.844Z,12.40
2022-10-10T18:14:47.833Z,12.30
2022-10-10T18:17:35.766Z,12.20
2022-10-10T18:20:25.317Z,12.20
2022-10-10T18:23:14.403Z,12.10
2022-10-10T18:26:02.295Z,12.10
2022-10-10T18:28:52.484Z,12.10
2022-10-10T18:31:40.511Z,12.00
2022-10-10T18:34:28.690Z,11.90
2022-10-10T18:37:16.401Z,11.90
2022-10-10T18:40:07.512Z,11.80
2022-10-10T18:42:55.278Z,11.80
2022-10-10T18:45:42.612Z,11.80
2022-10-10T18:48:31.174Z,11.70
2022-10-10T18:51:22.829Z,11.80
2022-10-10T18:54:13.870Z,11.70
2022-10-10T18:57:03.398Z,11.80
2022-10-10T18:59:51.343Z,11.80
2022-10-10T19:02:39.731Z,11.80
2022-10-10T19:05:27.488Z,11.90
2022-10-10T19:08:15.169Z,11.90
2022-10-10T19:11:04.215Z,11.90
2022-10-10T19:13:54.393Z,12.00
2022-10-10T19:16:43.294Z,11.90
2022-10-10T19:19:31.536Z,11.90
2022-10-10T19:22:19.656Z,11.90
2022-10-10T19:25:10.451Z,11.80
2022-10-10T19:27:58.659Z,11.70
2022-10-10T19:30:49.195Z,11.60
2022-10-10T19:33:37.173Z,11.50
2022-10-10T19:36:25.551Z,11.30
2022-10-10T19:39:13.431Z,11.20
2022-10-10T19:42:01.200Z,11.20
2022-10-10T19:44:48.815Z,11.10
2022-10-10T19:47:37.924Z,11.00
2022-10-10T19:50:26.059Z,11.00
2022-10-10T19:53:17.419Z,11.00
2022-10-10T19:56:07.832Z,11.00
2022-10-10T19:58:57.420Z,11.00
2022-10-10T20:01:45.337Z,11.00
2022-10-10T20:04:34.707Z,11.00
2022-10-10T20:07:22.353Z,10.90
2022-10-10T20:10:12.355Z,10.90
2022-10-10T20:13:00.270Z,10.80
2022-10-10T20:15:49.492Z,10.80
2022-10-10T20:18:39.031Z,10.80
2022-10-10T20:21:31.702Z,10.80
2022-10-10T20:24:19.731Z,10.80
2022-10-10T20:27:07.587Z,10.70
2022-10-10T20:29:55.390Z,10.70
2022-10-10T20:32:43.366Z,10.60
2022-10-10T20:35:30.974Z,10.60
2022-10-10T20:38:20.243Z,10.50
2022-10-10T20:41:09.248Z,10.50
2022-10-10T20:43:59.189Z,10.50
2022-10-10T20:46:47.267Z,10.40
2022-10-10T20:49:35.206Z,10.40
2022-10-10T20:52:22.801Z,10.40
2022-10-10T20:55:12.995Z,10.40
2022-10-10T20:58:00.929Z,10.40
2022-10-10T21:00:49.224Z,10.40
2022-10-10T21:03:37.440Z,10.30
2022-10-10T21:06:27.268Z,10.30
2022-10-10T21:09:16.108Z,10.20
2022-10-10T21:12:05.582Z,10.20
2022-10-10T21:14:53.295Z,10.20
2022-10-10T21:17:41.953Z,10.20
2022-10-10T21:20:29.717Z,10.20
2022-10-10T21:23:17.823Z,10.20
2022-10-10T21:26:06.918Z,10.10
2022-10-10T21:28:57.693Z,10.10
2022-10-10T21:31:45.706Z,10.10
2022-10-10T21:34:33.555Z,10.10
2022-10-10T21:37:21.485Z,10.20
2022-10-10T21:40:10.038Z,10.10
2022-10-10T21:42:58.110Z,10.10
2022-10-10T21:45:47.401Z,10.20
2022-10-10T21:48:35.301Z,10.10
2022-10-10T21:51:23.263Z,10.10
2022-10-10T21:54:11.701Z,10.10
2022-10-10T21:56:59.312Z,10.10
2022-10-10T21:59:47.363Z,10.10
2022-10-10T22:02:36.770Z,10.10
2022-10-10T22:05:24.935Z,10.10
2022-10-10T22:08:13.226Z,10.00
2022-10-10T22:11:05.414Z,10.00
2022-10-10T22:13:53.093Z,10.00
2022-10-10T22:16:40.994Z,10.00
2022-10-10T22:19:30.103Z,10.00
2022-10-10T22:22:17.638Z,10.00
2022-10-10T22:25:06.584Z,10.00
2022-10-10T22:27:57.259Z,10.00
2022-10-10T22:30:45.499Z,10.00
2022-10-10T22:33:33.067Z,10.00
2022-10-10T22:36:22.363Z,10.00
2022-10-10T22:39:11.185Z,10.00
2022-10-10T22:41:59.429Z,10.00
2022-10-10T22:44:50.061Z,10.00
2022-10-10T22:47:37.741Z,10.10
2022-10-10T22:50:25.967Z,10.10
2022-10-10T22:53:15.402Z,10.10
2022-10-10T22:56:03.868Z,10.10
2022-10-10T22:58:52.271Z,10.10
2022-10-10T23:01:40.139Z,10.10
2022-10-10T23:04:27.805Z,10.10
2022-10-10T23:07:20.128Z,10.10
2022-10-10T23:10:10.558Z,10.10
2022-10-10T23:12:58.535Z,10.10
2022-10-10T23:15:46.526Z,10.10
2022-10-10T23:18:34.084Z,10.00
2022-10-10T23:21:21.996Z,10.00
2022-10-10T23:24:09.939Z,9.90
2022-10-10T23:26:58.960Z,9.80
2022-10-10T23:29:46.645Z,9.70
2022-10-10T23:32:34.738Z,9.70
2022-10-10T23:35:22.348Z,9.60
2022-10-10T23:38:10.225Z,9.50
2022-10-10T23:40:58.341Z,9.40
2022-10-10T23:43:47.577Z,9.30
2022-10-10T23:46:35.709Z,9.20
2022-10-10T23:49:23.389Z,9.10
2022-10-10T23:52:06.168Z,9.00
2022-10-10T23:54:48.195Z,8.90
2022-10-10T23:57:36.081Z,8.80
